createdAt,value
2019-05-01T00:00:33.841Z,0.00
2019-05-01T00:01:34.396Z,0.00
2019-05-01T00:02:34.851Z,0.00
2019-05-01T00:03:35.447Z,0.00
2019-05-01T00:04:36.275Z,0.00
2019-05-01T00:05:37.063Z,0.00
2019-05-01T00:06:37.433Z,0.00
2019-05-01T00:07:37.858Z,0.00
2019-05-01T00:08:38.271Z,0.00
2019-05-01T00:09:38.743Z,0.00
2019-05-01T00:10:39.192Z,0.00
2019-05-01T00:11:39.600Z,0.00
2019-05-01T00:12:40.253Z,0.00
2019-05-01T00:13:40.818Z,0.00
2019-05-01T00:13:49.370Z,0.00
2019-05-01T00:14:50.767Z,0.00
2019-05-01T00:15:51.184Z,0.00
2019-05-01T00:16:51.624Z,0.00
2019-05-01T00:17:52.099Z,0.00
2019-05-01T00:18:52.963Z,0.00
2019-05-01T00:19:54.138Z,0.00
2019-05-01T00:20:53.554Z,0.00
2019-05-01T00:21:53.619Z,0.00
2019-05-01T00:22:53.201Z,0.00
2019-05-01T00:23:54.575Z,0.00
2019-05-01T00:24:55.261Z,0.00
2019-05-01T00:25:55.723Z,0.00
2019-05-01T00:26:56.248Z,0.00
2019-05-01T00:27:56.782Z,0.00
2019-05-01T00:28:58.299Z,0.00
2019-05-01T00:29:57.690Z,0.00
2019-05-01T00:30:58.277Z,0.00
2019-05-01T00:31:58.807Z,0.00
2019-05-01T00:32:59.223Z,0.00
2019-05-01T00:33:59.947Z,0.00
2019-05-01T00:35:00.503Z,0.00
2019-05-01T00:36:00.920Z,0.00
2019-05-01T00:37:01.619Z,0.00
2019-05-01T00:38:02.047Z,0.00
2019-05-01T00:39:02.531Z,0.00
2019-05-01T00:40:03.154Z,0.00
2019-05-01T00:41:03.693Z,0.00
2019-05-01T00:42:04.234Z,0.00
2019-05-01T00:43:04.792Z,0.00
2019-05-01T00:44:05.265Z,0.00
2019-05-01T00:45:05.659Z,0.00
2019-05-01T00:46:06.084Z,0.00
2019-05-01T00:47:06.601Z,0.00
2019-05-01T00:48:07.034Z,0.00
2019-05-01T00:49:07.420Z,0.00
2019-05-01T00:50:07.919Z,0.00
2019-05-01T00:51:08.382Z,0.00
2019-05-01T00:52:08.926Z,0.00
2019-05-01T00:53:09.360Z,0.00
2019-05-01T00:54:09.785Z,0.00
2019-05-01T00:55:10.341Z,0.00
2019-05-01T00:56:10.880Z,0.00
2019-05-01T00:57:11.404Z,0.00
2019-05-01T00:58:12.140Z,0.00
2019-05-01T00:59:12.744Z,0.00
2019-05-01T00:59:21.259Z,0.00
2019-05-01T01:00:22.686Z,0.00
2019-05-01T01:01:23.180Z,0.00
2019-05-01T01:02:23.556Z,0.00
2019-05-01T01:03:24.537Z,0.00
2019-05-01T01:04:25.016Z,0.00
2019-05-01T01:05:25.076Z,0.00
2019-05-01T01:06:25.697Z,0.00
2019-05-01T01:07:26.219Z,0.00
2019-05-01T01:08:26.799Z,0.00
2019-05-01T01:09:27.195Z,0.00
2019-05-01T01:10:27.939Z,0.00
2019-05-01T01:11:28.586Z,0.00
2019-05-01T01:12:28.789Z,0.00
2019-05-01T01:13:29.477Z,0.00
2019-05-01T01:14:30.004Z,0.00
2019-05-01T01:15:29.528Z,0.00
2019-05-01T01:16:30.911Z,0.00
2019-05-01T01:17:31.389Z,0.00
2019-05-01T01:18:31.826Z,0.00
2019-05-01T01:19:32.385Z,0.00
2019-05-01T01:20:31.870Z,0.00
2019-05-01T01:21:33.280Z,0.00
2019-05-01T01:22:33.679Z,0.00
2019-05-01T01:23:34.089Z,0.00
2019-05-01T01:24:34.559Z,0.00
2019-05-01T01:25:35.305Z,0.00
2019-05-01T01:26:35.546Z,0.00
2019-05-01T01:27:36.226Z,0.00
2019-05-01T01:28:36.861Z,0.00
2019-05-01T01:29:37.615Z,0.00
2019-05-01T01:30:38.123Z,0.00
2019-05-01T01:31:38.928Z,0.00
2019-05-01T01:32:39.491Z,0.00
2019-05-01T01:33:39.987Z,0.00
2019-05-01T01:34:40.422Z,0.00
2019-05-01T01:35:41.019Z,0.00
2019-05-01T01:36:41.445Z,0.00
2019-05-01T01:37:42.000Z,0.00
2019-05-01T01:38:42.497Z,0.00
2019-05-01T01:39:42.969Z,0.00
2019-05-01T01:40:43.388Z,0.00
2019-05-01T01:41:43.807Z,0.00
2019-05-01T01:42:44.199Z,0.00
2019-05-01T01:43:44.683Z,0.00
2019-05-01T01:43:53.203Z,0.00
2019-05-01T01:44:54.700Z,0.00
2019-05-01T01:45:55.184Z,0.00
2019-05-01T01:46:55.603Z,0.00
2019-05-01T01:47:56.002Z,0.00
2019-05-01T01:48:56.432Z,0.00
2019-05-01T01:49:57.245Z,0.00
2019-05-01T01:50:57.770Z,0.00
2019-05-01T01:51:58.209Z,0.00
2019-05-01T01:52:58.633Z,0.00
2019-05-01T01:53:59.370Z,0.00
2019-05-01T01:55:00.526Z,0.00
2019-05-01T01:56:00.330Z,0.00
2019-05-01T01:57:00.745Z,0.00
2019-05-01T01:58:01.245Z,0.00
2019-05-01T01:59:01.580Z,0.00
2019-05-01T02:00:01.966Z,0.00
2019-05-01T02:01:09.337Z,0.00
2019-05-01T02:02:01.940Z,0.00
2019-05-01T02:03:03.409Z,0.00
2019-05-01T02:04:03.942Z,0.00
2019-05-01T02:05:04.283Z,0.00
2019-05-01T02:06:05.056Z,0.00
2019-05-01T02:07:05.338Z,0.00
2019-05-01T02:08:08.867Z,0.00
2019-05-01T02:09:05.368Z,0.00
2019-05-01T02:10:07.231Z,0.00
2019-05-01T02:11:06.397Z,0.00
2019-05-01T02:12:07.917Z,0.00
2019-05-01T02:13:08.439Z,0.00
2019-05-01T02:14:09.000Z,0.00
2019-05-01T02:15:09.504Z,0.00
2019-05-01T02:16:09.981Z,0.00
2019-05-01T02:17:10.557Z,0.00
2019-05-01T02:18:09.497Z,0.00
2019-05-01T02:19:11.084Z,0.00
2019-05-01T02:20:11.738Z,0.00
2019-05-01T02:21:12.284Z,0.00
2019-05-01T02:22:12.646Z,0.00
2019-05-01T02:23:12.767Z,0.00
2019-05-01T02:24:13.200Z,0.00
2019-05-01T02:25:13.907Z,0.00
2019-05-01T02:26:14.430Z,0.00
2019-05-01T02:27:15.090Z,0.00
2019-05-01T02:28:15.474Z,0.00
2019-05-01T02:29:15.860Z,0.00
2019-05-01T02:30:16.264Z,0.00
2019-05-01T02:31:27.348Z,0.00
2019-05-01T02:32:16.110Z,0.00
2019-05-01T02:33:16.836Z,0.00
2019-05-01T02:33:25.359Z,0.00
2019-05-01T02:34:26.966Z,0.00
2019-05-01T02:35:30.342Z,0.00
2019-05-01T02:36:26.888Z,0.00
2019-05-01T02:37:28.335Z,0.00
2019-05-01T02:38:28.836Z,0.00
2019-05-01T02:39:29.213Z,0.00
2019-05-01T02:40:28.689Z,0.00
2019-05-01T02:41:30.178Z,0.00
2019-05-01T02:42:30.593Z,0.00
2019-05-01T02:43:31.519Z,0.00
2019-05-01T02:44:31.863Z,0.00
2019-05-01T02:45:32.294Z,0.00
2019-05-01T02:46:31.692Z,0.00
2019-05-01T02:47:33.167Z,0.00
2019-05-01T02:48:33.568Z,0.00
2019-05-01T02:49:34.368Z,0.00
2019-05-01T02:50:34.781Z,0.00
2019-05-01T02:51:35.219Z,0.00
2019-05-01T02:52:35.986Z,0.00
2019-05-01T02:53:36.496Z,0.00
2019-05-01T02:54:36.922Z,0.00
2019-05-01T02:55:37.407Z,0.00
2019-05-01T02:56:37.815Z,0.00
2019-05-01T02:57:38.269Z,0.00
2019-05-01T02:58:38.763Z,0.00
2019-05-01T02:59:39.231Z,0.00
2019-05-01T03:00:39.656Z,0.00
2019-05-01T03:01:47.409Z,0.00
2019-05-01T03:02:39.660Z,0.00
2019-05-01T03:03:40.097Z,0.00
2019-05-01T03:04:41.530Z,0.00
2019-05-01T03:05:41.930Z,0.00
2019-05-01T03:06:42.405Z,0.00
2019-05-01T03:07:42.855Z,0.00
2019-05-01T03:08:43.258Z,0.05
2019-05-01T03:09:43.376Z,0.05
2019-05-01T03:10:43.781Z,0.05
2019-05-01T03:11:44.145Z,0.05
2019-05-01T03:12:44.545Z,0.05
2019-05-01T03:13:44.993Z,0.05
2019-05-01T03:14:45.570Z,0.05
2019-05-01T03:15:46.100Z,0.05
2019-05-01T03:16:46.582Z,0.09
2019-05-01T03:17:47.091Z,0.09
2019-05-01T03:18:47.517Z,0.14
2019-05-01T03:19:47.931Z,0.18
2019-05-01T03:20:48.450Z,0.18
2019-05-01T03:20:56.968Z,0.18
2019-05-01T03:21:58.449Z,0.22
2019-05-01T03:22:58.902Z,0.27
2019-05-01T03:23:59.298Z,0.27
2019-05-01T03:25:00.041Z,0.36
2019-05-01T03:26:00.445Z,0.41
2019-05-01T03:27:01.265Z,0.54
2019-05-01T03:28:00.683Z,0.58
2019-05-01T03:29:02.181Z,0.72
2019-05-01T03:30:02.734Z,0.81
2019-05-01T03:31:03.212Z,0.99
2019-05-01T03:32:17.323Z,1.17
2019-05-01T03:33:03.217Z,1.35
2019-05-01T03:34:04.658Z,1.58
2019-05-01T03:35:03.970Z,1.85
2019-05-01T03:36:05.354Z,2.16
2019-05-01T03:37:05.818Z,2.52
2019-05-01T03:38:06.184Z,2.97
2019-05-01T03:39:07.992Z,3.46
2019-05-01T03:40:07.440Z,4.09
2019-05-01T03:41:07.817Z,4.77
2019-05-01T03:42:08.623Z,5.53
2019-05-01T03:43:09.166Z,6.53
2019-05-01T03:44:09.197Z,7.56
2019-05-01T03:45:09.618Z,8.91
2019-05-01T03:46:09.965Z,10.31
2019-05-01T03:47:10.406Z,12.06
2019-05-01T03:48:10.790Z,14.13
2019-05-01T03:49:11.215Z,16.38
2019-05-01T03:50:11.710Z,18.99
2019-05-01T03:51:11.097Z,21.87
2019-05-01T03:52:12.649Z,25.38
2019-05-01T03:53:13.071Z,29.34
2019-05-01T03:54:13.490Z,33.66
2019-05-01T03:55:13.952Z,38.52
2019-05-01T03:56:13.993Z,43.92
2019-05-01T03:57:14.323Z,50.04
2019-05-01T03:58:14.786Z,56.88
2019-05-01T03:59:15.511Z,64.08
2019-05-01T04:00:15.989Z,72.36
2019-05-01T04:01:16.757Z,81.72
2019-05-01T04:02:32.247Z,91.80
2019-05-01T04:03:16.720Z,102.24
2019-05-01T04:04:18.300Z,113.04
2019-05-01T04:05:18.708Z,126.00
2019-05-01T04:06:17.849Z,139.68
2019-05-01T04:07:19.450Z,154.08
2019-05-01T04:08:19.946Z,169.20
2019-05-01T04:09:20.818Z,184.32
2019-05-01T04:10:21.404Z,201.60
2019-05-01T04:10:30.317Z,204.48
2019-05-01T04:11:31.751Z,223.20
2019-05-01T04:12:32.363Z,241.92
2019-05-01T04:13:32.895Z,260.64
2019-05-01T04:14:33.123Z,282.24
2019-05-01T04:15:33.801Z,303.84
2019-05-01T04:16:34.606Z,325.44
2019-05-01T04:17:35.025Z,349.92
2019-05-01T04:18:35.168Z,374.40
2019-05-01T04:19:35.651Z,397.44
2019-05-01T04:20:36.288Z,423.36
2019-05-01T04:21:36.766Z,446.40
2019-05-01T04:22:37.338Z,475.20
2019-05-01T04:23:37.750Z,504.00
2019-05-01T04:24:37.740Z,532.80
2019-05-01T04:25:38.142Z,561.60
2019-05-01T04:26:39.520Z,590.40
2019-05-01T04:27:39.007Z,619.20
2019-05-01T04:28:39.436Z,650.88
2019-05-01T04:29:39.882Z,679.68
2019-05-01T04:30:40.374Z,714.24
2019-05-01T04:31:41.086Z,748.80
2019-05-01T04:32:51.666Z,783.36
2019-05-01T04:33:41.174Z,817.92
2019-05-01T04:34:42.854Z,852.48
2019-05-01T04:35:43.250Z,881.28
2019-05-01T04:36:43.699Z,921.60
2019-05-01T04:37:44.100Z,950.40
2019-05-01T04:38:44.533Z,979.20
2019-05-01T04:39:44.920Z,1008.00
2019-05-01T04:40:45.378Z,1105.92
2019-05-01T04:41:45.847Z,1140.48
2019-05-01T04:42:46.220Z,1186.56
2019-05-01T04:43:46.780Z,1238.40
2019-05-01T04:44:47.202Z,1278.72
2019-05-01T04:45:46.595Z,1324.80
2019-05-01T04:46:48.041Z,1376.64
2019-05-01T04:47:48.474Z,1422.72
2019-05-01T04:48:48.853Z,1474.56
2019-05-01T04:49:49.494Z,1520.64
2019-05-01T04:50:49.975Z,1578.24
2019-05-01T04:51:50.304Z,1612.80
2019-05-01T04:52:50.692Z,1647.36
2019-05-01T04:53:51.250Z,1681.92
2019-05-01T04:54:51.676Z,1762.56
2019-05-01T04:55:52.250Z,1843.20
2019-05-01T04:56:52.676Z,1923.84
2019-05-01T04:57:01.222Z,1935.36
2019-05-01T04:58:02.648Z,2004.48
2019-05-01T04:59:03.048Z,2062.08
2019-05-01T05:00:03.443Z,2119.68
2019-05-01T05:01:03.970Z,2165.76
2019-05-01T05:02:04.408Z,2211.84
2019-05-01T05:03:05.566Z,2269.44
2019-05-01T05:04:04.410Z,2327.04
2019-05-01T05:05:05.808Z,2442.24
2019-05-01T05:06:06.286Z,2545.92
2019-05-01T05:07:06.616Z,2603.52
2019-05-01T05:08:06.991Z,2649.60
2019-05-01T05:09:07.349Z,2684.16
2019-05-01T05:10:07.921Z,2707.20
2019-05-01T05:11:08.501Z,2730.24
2019-05-01T05:12:08.941Z,2776.32
2019-05-01T05:13:09.297Z,2856.96
2019-05-01T05:14:10.012Z,2937.60
2019-05-01T05:15:10.394Z,3041.28
2019-05-01T05:16:10.891Z,3133.44
2019-05-01T05:17:11.304Z,3248.64
2019-05-01T05:18:11.733Z,3363.84
2019-05-01T05:19:12.189Z,3432.96
2019-05-01T05:20:12.667Z,3525.12
2019-05-01T05:21:13.181Z,3594.24
2019-05-01T05:22:16.415Z,3594.24
2019-05-01T05:23:12.991Z,3663.36
2019-05-01T05:24:14.715Z,3709.44
2019-05-01T05:25:15.157Z,3755.52
2019-05-01T05:26:15.861Z,3801.60
2019-05-01T05:27:16.294Z,3870.72
2019-05-01T05:28:16.794Z,3893.76
2019-05-01T05:29:17.203Z,3847.68
2019-05-01T05:30:18.178Z,3801.60
2019-05-01T05:31:19.142Z,3824.64
2019-05-01T05:32:19.468Z,3801.60
2019-05-01T05:33:19.060Z,3732.48
2019-05-01T05:34:19.478Z,3709.44
2019-05-01T05:35:21.240Z,3686.40
2019-05-01T05:36:21.476Z,3709.44
2019-05-01T05:37:21.084Z,3801.60
2019-05-01T05:38:22.470Z,3893.76
2019-05-01T05:39:23.015Z,3962.88
2019-05-01T05:40:23.544Z,3985.92
2019-05-01T05:41:23.552Z,4008.96
2019-05-01T05:42:24.194Z,4032.00
2019-05-01T05:43:24.903Z,4101.12
2019-05-01T05:44:25.708Z,4216.32
2019-05-01T05:44:34.755Z,4239.36
2019-05-01T05:45:36.467Z,4331.52
2019-05-01T05:46:37.331Z,4285.44
2019-05-01T05:47:37.752Z,4262.40
2019-05-01T05:48:37.960Z,4331.52
2019-05-01T05:49:39.703Z,4469.76
2019-05-01T05:50:39.472Z,4608.00
2019-05-01T05:51:39.873Z,4631.04
2019-05-01T05:52:40.414Z,4608.00
2019-05-01T05:53:40.895Z,4561.92
2019-05-01T05:54:41.414Z,4538.88
2019-05-01T05:55:41.934Z,4515.84
2019-05-01T05:56:42.519Z,4469.76
2019-05-01T05:57:43.006Z,4377.60
2019-05-01T05:58:43.428Z,4354.56
2019-05-01T05:59:43.905Z,4308.48
2019-05-01T06:00:44.380Z,4262.40
2019-05-01T06:01:44.962Z,4193.28
2019-05-01T06:02:45.420Z,4193.28
2019-05-01T06:03:46.120Z,4239.36
2019-05-01T06:04:46.947Z,4285.44
2019-05-01T06:05:47.631Z,4331.52
2019-05-01T06:06:48.121Z,4423.68
2019-05-01T06:07:48.577Z,4538.88
2019-05-01T06:08:48.991Z,4654.08
2019-05-01T06:09:49.648Z,4677.12
2019-05-01T06:10:49.000Z,4608.00
2019-05-01T06:11:50.609Z,4608.00
2019-05-01T06:12:50.994Z,4700.16
2019-05-01T06:13:52.512Z,4792.32
2019-05-01T06:14:50.803Z,4838.40
2019-05-01T06:15:52.328Z,4861.44
2019-05-01T06:16:53.991Z,4930.56
2019-05-01T06:17:51.807Z,5068.80
2019-05-01T06:18:53.314Z,5207.04
2019-05-01T06:19:53.892Z,5345.28
2019-05-01T06:20:57.123Z,5345.28
2019-05-01T06:21:53.887Z,5230.08
2019-05-01T06:22:55.264Z,5184.00
2019-05-01T06:23:57.727Z,5184.00
2019-05-01T06:24:54.849Z,5184.00
2019-05-01T06:26:00.295Z,5114.88
2019-05-01T06:26:55.908Z,5091.84
2019-05-01T06:27:57.330Z,5091.84
2019-05-01T06:29:00.799Z,5114.88
2019-05-01T06:29:57.169Z,5091.84
2019-05-01T06:30:58.639Z,5091.84
2019-05-01T06:32:00.031Z,5114.88
2019-05-01T06:32:58.463Z,5091.84
2019-05-01T06:33:59.930Z,4999.68
2019-05-01T06:34:08.475Z,4999.68
2019-05-01T06:35:10.058Z,4907.52
2019-05-01T06:36:13.189Z,4953.60
2019-05-01T06:37:10.201Z,4999.68
2019-05-01T06:38:11.787Z,4953.60
2019-05-01T06:39:13.332Z,4930.56
2019-05-01T06:40:12.047Z,4976.64
2019-05-01T06:41:13.897Z,5022.72
2019-05-01T06:42:15.077Z,5022.72
2019-05-01T06:43:14.045Z,5022.72
2019-05-01T06:44:15.493Z,5160.96
2019-05-01T06:45:16.768Z,5276.16
2019-05-01T06:46:15.429Z,5368.32
2019-05-01T06:47:16.803Z,5460.48
2019-05-01T06:48:17.775Z,5529.60
2019-05-01T06:49:16.693Z,5575.68
2019-05-01T06:50:18.113Z,5644.80
2019-05-01T06:51:18.913Z,5760.00
2019-05-01T06:52:18.053Z,5875.20
2019-05-01T06:53:19.446Z,5852.16
2019-05-01T06:54:19.930Z,5852.16
2019-05-01T06:55:22.543Z,5783.04
2019-05-01T06:56:19.729Z,5875.20
2019-05-01T06:57:21.748Z,5898.24
2019-05-01T06:58:22.515Z,5944.32
2019-05-01T06:59:26.267Z,6082.56
2019-05-01T07:00:22.405Z,6220.80
2019-05-01T07:01:24.310Z,6312.96
2019-05-01T07:02:24.992Z,6405.12
2019-05-01T07:03:25.357Z,6405.12
2019-05-01T07:04:25.392Z,6359.04
2019-05-01T07:05:25.782Z,6451.20
2019-05-01T07:06:30.894Z,6497.28
2019-05-01T07:07:26.037Z,6497.28
2019-05-01T07:08:29.520Z,6543.36
2019-05-01T07:09:28.332Z,6681.60
2019-05-01T07:10:31.442Z,6773.76
2019-05-01T07:11:28.586Z,6912.00
2019-05-01T07:12:30.016Z,7096.32
2019-05-01T07:13:29.560Z,7326.72
2019-05-01T07:14:30.907Z,7557.12
2019-05-01T07:15:31.442Z,7603.20
2019-05-01T07:16:33.131Z,7464.96
2019-05-01T07:17:31.773Z,7188.48
2019-05-01T07:18:32.283Z,7004.16
2019-05-01T07:19:35.592Z,6958.08
2019-05-01T07:20:33.488Z,7004.16
2019-05-01T07:21:34.937Z,7004.16
2019-05-01T07:22:37.155Z,7004.16
2019-05-01T07:23:35.006Z,7096.32
2019-05-01T07:24:36.557Z,7326.72
2019-05-01T07:25:39.465Z,7464.96
2019-05-01T07:26:36.430Z,7464.96
2019-05-01T07:27:38.135Z,7372.80
2019-05-01T07:28:37.546Z,7418.88
2019-05-01T07:29:39.764Z,7695.36
2019-05-01T07:30:41.356Z,8017.92
2019-05-01T07:31:39.524Z,8202.24
2019-05-01T07:32:42.755Z,8202.24
2019-05-01T07:33:40.444Z,8248.32
2019-05-01T07:34:42.149Z,8340.48
2019-05-01T07:35:42.678Z,8478.72
2019-05-01T07:36:45.692Z,8616.96
2019-05-01T07:36:51.777Z,8663.04
2019-05-01T07:37:52.523Z,8709.12
2019-05-01T07:38:54.250Z,8709.12
2019-05-01T07:39:55.775Z,8801.28
2019-05-01T07:40:58.738Z,8893.44
2019-05-01T07:41:54.676Z,8939.52
2019-05-01T07:42:56.165Z,9169.92
2019-05-01T07:43:59.711Z,9584.64
2019-05-01T07:44:56.160Z,10137.60
2019-05-01T07:45:57.941Z,10552.32
2019-05-01T07:46:58.351Z,10690.56
2019-05-01T07:48:25.135Z,10598.40
2019-05-01T07:49:26.953Z,10552.32
2019-05-01T07:50:31.661Z,10552.32
2019-05-01T07:51:27.139Z,10552.32
2019-05-01T07:52:28.864Z,10598.40
2019-05-01T07:53:29.609Z,10828.80
2019-05-01T07:54:30.026Z,11243.52
2019-05-01T07:55:30.874Z,11658.24
2019-05-01T07:56:31.242Z,11888.64
2019-05-01T07:57:34.184Z,12257.28
2019-05-01T07:58:31.406Z,12533.76
2019-05-01T07:59:33.008Z,12902.40
2019-05-01T08:00:36.986Z,13639.68
2019-05-01T08:01:33.181Z,14284.80
2019-05-01T08:02:34.745Z,15298.56
2019-05-01T08:03:37.968Z,16865.28
2019-05-01T08:04:36.272Z,18247.68
2019-05-01T08:05:35.628Z,18432.00
2019-05-01T08:06:37.179Z,17971.20
2019-05-01T08:07:36.533Z,17602.56
2019-05-01T08:08:39.562Z,17049.60
2019-05-01T08:09:37.704Z,16496.64
2019-05-01T08:10:39.126Z,16404.48
2019-05-01T08:11:44.127Z,16496.64
2019-05-01T08:12:39.299Z,16496.64
2019-05-01T08:13:41.035Z,17049.60
2019-05-01T08:14:41.590Z,17694.72
2019-05-01T08:15:41.971Z,18800.64
2019-05-01T08:16:42.506Z,20551.68
2019-05-01T08:17:41.812Z,21288.96
2019-05-01T08:18:43.273Z,20828.16
2019-05-01T08:19:44.083Z,20090.88
2019-05-01T08:20:45.836Z,20828.16
2019-05-01T08:21:44.235Z,21565.44
2019-05-01T08:22:45.586Z,21473.28
2019-05-01T08:23:47.237Z,21381.12
2019-05-01T08:24:45.623Z,21104.64
2019-05-01T08:25:47.111Z,20551.68
2019-05-01T08:26:47.732Z,20643.84
2019-05-01T08:27:51.147Z,21288.96
2019-05-01T08:28:47.870Z,22118.40
2019-05-01T08:29:49.234Z,22118.40
2019-05-01T08:30:52.679Z,22302.72
2019-05-01T08:31:49.552Z,22855.68
2019-05-01T08:32:50.911Z,24883.20
2019-05-01T08:33:51.703Z,24514.56
2019-05-01T08:34:51.189Z,24514.56
2019-05-01T08:35:53.881Z,31887.36
2019-05-01T08:36:53.475Z,25251.84
2019-05-01T08:37:58.285Z,21657.60
2019-05-01T08:38:53.222Z,20459.52
2019-05-01T08:39:54.889Z,22763.52
2019-05-01T08:40:56.657Z,30781.44
2019-05-01T08:41:54.731Z,32993.28
2019-05-01T08:42:55.978Z,35205.12
2019-05-01T08:43:56.601Z,35389.44
2019-05-01T08:44:59.832Z,35758.08
2019-05-01T08:45:07.108Z,36126.72
2019-05-01T08:46:11.816Z,35389.44
2019-05-01T08:47:08.258Z,35942.40
2019-05-01T08:48:10.085Z,36311.04
2019-05-01T08:49:11.422Z,33914.88
2019-05-01T08:50:10.193Z,34836.48
2019-05-01T08:51:10.849Z,35205.12
2019-05-01T08:52:13.916Z,35020.80
2019-05-01T08:53:11.757Z,36311.04
2019-05-01T08:54:13.487Z,36864.00
2019-05-01T08:55:14.094Z,34652.16
2019-05-01T08:56:17.051Z,34836.48
2019-05-01T08:57:14.333Z,36864.00
2019-05-01T08:58:16.173Z,37601.28
2019-05-01T08:59:19.454Z,38154.24
2019-05-01T09:00:16.262Z,37969.92
2019-05-01T09:01:17.976Z,37785.60
2019-05-01T09:02:18.465Z,38338.56
2019-05-01T09:03:20.420Z,38891.52
2019-05-01T09:04:18.913Z,39628.80
2019-05-01T09:05:28.376Z,39813.12
2019-05-01T09:06:19.277Z,40366.08
2019-05-01T09:07:24.022Z,40550.40
2019-05-01T09:08:20.302Z,40734.72
2019-05-01T09:09:21.854Z,40366.08
2019-05-01T09:10:23.296Z,40734.72
2019-05-01T09:11:21.858Z,40919.04
2019-05-01T09:12:23.525Z,41287.68
2019-05-01T09:13:24.869Z,41840.64
2019-05-01T09:14:23.491Z,42946.56
2019-05-01T09:15:24.891Z,43499.52
2019-05-01T09:16:28.408Z,44052.48
2019-05-01T09:17:25.390Z,43868.16
2019-05-01T09:18:26.868Z,43499.52
2019-05-01T09:19:27.389Z,42762.24
2019-05-01T09:20:26.874Z,42762.24
2019-05-01T09:21:28.462Z,42024.96
2019-05-01T09:22:29.318Z,42024.96
2019-05-01T09:23:30.007Z,42024.96
2019-05-01T09:24:30.629Z,42209.28
2019-05-01T09:25:35.296Z,43499.52
2019-05-01T09:26:30.571Z,44421.12
2019-05-01T09:27:32.159Z,44789.76
2019-05-01T09:28:35.966Z,44789.76
2019-05-01T09:29:32.228Z,44052.48
2019-05-01T09:30:33.655Z,43315.20
2019-05-01T09:31:35.588Z,42946.56
2019-05-01T09:32:33.917Z,42209.28
2019-05-01T09:33:35.291Z,41472.00
2019-05-01T09:34:35.996Z,41472.00
2019-05-01T09:35:40.340Z,42209.28
2019-05-01T09:36:36.257Z,43868.16
2019-05-01T09:37:36.507Z,45342.72
2019-05-01T09:38:37.986Z,47001.60
2019-05-01T09:39:38.528Z,47554.56
2019-05-01T09:40:39.210Z,47554.56
2019-05-01T09:41:43.073Z,46632.96
2019-05-01T09:42:39.549Z,45158.40
2019-05-01T09:43:41.031Z,45158.40
2019-05-01T09:43:49.632Z,45158.40
2019-05-01T09:44:50.810Z,45342.72
2019-05-01T09:45:51.180Z,45527.04
2019-05-01T09:46:51.950Z,46632.96
2019-05-01T09:47:52.368Z,47554.56
2019-05-01T09:48:52.871Z,49397.76
2019-05-01T09:49:55.555Z,50872.32
2019-05-01T09:50:53.071Z,50503.68
2019-05-01T09:51:54.588Z,50872.32
2019-05-01T09:52:59.655Z,50872.32
2019-05-01T09:53:54.574Z,50872.32
2019-05-01T09:54:56.018Z,50872.32
2019-05-01T09:55:56.453Z,50872.32
2019-05-01T09:56:56.957Z,51240.96
2019-05-01T09:57:57.797Z,51609.60
2019-05-01T09:58:58.218Z,51978.24
2019-05-01T09:59:58.657Z,52346.88
2019-05-01T10:00:59.025Z,52715.52
2019-05-01T10:02:03.027Z,52715.52
2019-05-01T10:02:59.494Z,52346.88
2019-05-01T10:04:00.935Z,51609.60
2019-05-01T10:05:02.010Z,50872.32
2019-05-01T10:06:00.940Z,50872.32
2019-05-01T10:07:02.467Z,50872.32
2019-05-01T10:08:04.158Z,51240.96
2019-05-01T10:09:02.273Z,51609.60
2019-05-01T10:10:03.781Z,52715.52
2019-05-01T10:11:05.128Z,53821.44
2019-05-01T10:12:04.215Z,54190.08
2019-05-01T10:13:04.607Z,54190.08
2019-05-01T10:14:06.583Z,54190.08
2019-05-01T10:15:07.113Z,54190.08
2019-05-01T10:16:06.842Z,53452.80
2019-05-01T10:17:08.309Z,51978.24
2019-05-01T10:18:09.058Z,51978.24
2019-05-01T10:19:09.447Z,51609.60
2019-05-01T10:20:10.005Z,51609.60
2019-05-01T10:21:10.388Z,51609.60
2019-05-01T10:22:10.843Z,53452.80
2019-05-01T10:23:12.941Z,54190.08
2019-05-01T10:24:10.838Z,54558.72
2019-05-01T10:25:13.529Z,54927.36
2019-05-01T10:26:11.846Z,54927.36
2019-05-01T10:27:13.377Z,56033.28
2019-05-01T10:28:17.398Z,56401.92
2019-05-01T10:29:13.219Z,56401.92
2019-05-01T10:30:14.977Z,56033.28
2019-05-01T10:31:15.385Z,56033.28
2019-05-01T10:32:16.896Z,55664.64
2019-05-01T10:33:15.789Z,56033.28
2019-05-01T10:34:17.380Z,56401.92
2019-05-01T10:35:19.087Z,56401.92
2019-05-01T10:36:18.887Z,56033.28
2019-05-01T10:37:18.195Z,56033.28
2019-05-01T10:38:19.712Z,55664.64
2019-05-01T10:38:29.687Z,55664.64
2019-05-01T10:39:31.007Z,55664.64
2019-05-01T10:40:32.391Z,56401.92
2019-05-01T10:41:30.894Z,56033.28
2019-05-01T10:42:32.838Z,56033.28
2019-05-01T10:43:33.383Z,56770.56
2019-05-01T10:44:33.869Z,56770.56
2019-05-01T10:45:34.407Z,57507.84
2019-05-01T10:46:34.777Z,57139.20
2019-05-01T10:47:35.298Z,57139.20
2019-05-01T10:48:35.841Z,56770.56
2019-05-01T10:49:36.243Z,57507.84
2019-05-01T10:50:36.749Z,57876.48
2019-05-01T10:51:37.183Z,57507.84
2019-05-01T10:52:37.672Z,57139.20
2019-05-01T10:53:38.565Z,57507.84
2019-05-01T10:54:39.010Z,57876.48
2019-05-01T10:55:39.420Z,58613.76
2019-05-01T10:56:39.971Z,58245.12
2019-05-01T10:57:42.231Z,58245.12
2019-05-01T10:58:40.076Z,57876.48
2019-05-01T10:59:41.604Z,57507.84
2019-05-01T11:00:42.144Z,57507.84
2019-05-01T11:01:42.725Z,57139.20
2019-05-01T11:02:42.461Z,57507.84
2019-05-01T11:03:44.143Z,57139.20
2019-05-01T11:04:44.703Z,57507.84
2019-05-01T11:05:55.273Z,57876.48
2019-05-01T11:06:44.897Z,57139.20
2019-05-01T11:07:46.677Z,56770.56
2019-05-01T11:08:47.195Z,57876.48
2019-05-01T11:09:47.937Z,58613.76
2019-05-01T11:10:48.407Z,58982.40
2019-05-01T11:11:48.987Z,58982.40
2019-05-01T11:12:49.608Z,58613.76
2019-05-01T11:13:50.093Z,58613.76
2019-05-01T11:14:50.485Z,58245.12
2019-05-01T11:15:51.004Z,58982.40
2019-05-01T11:16:50.478Z,59351.04
2019-05-01T11:17:51.863Z,59351.04
2019-05-01T11:18:52.320Z,58613.76
2019-05-01T11:19:53.020Z,58613.76
2019-05-01T11:20:53.691Z,57876.48
2019-05-01T11:21:54.396Z,57507.84
2019-05-01T11:22:55.014Z,57139.20
2019-05-01T11:23:55.769Z,57139.20
2019-05-01T11:24:56.532Z,57139.20
2019-05-01T11:25:56.050Z,57507.84
2019-05-01T11:26:57.497Z,57876.48
2019-05-01T11:27:08.027Z,57507.84
2019-05-01T11:28:09.520Z,57507.84
2019-05-01T11:29:08.848Z,57876.48
2019-05-01T11:30:10.427Z,58613.76
2019-05-01T11:31:10.908Z,58245.12
2019-05-01T11:32:11.663Z,58982.40
2019-05-01T11:33:12.102Z,58245.12
2019-05-01T11:34:12.679Z,59351.04
2019-05-01T11:35:13.461Z,59351.04
2019-05-01T11:36:14.231Z,59351.04
2019-05-01T11:37:14.564Z,60088.32
2019-05-01T11:38:14.906Z,59351.04
2019-05-01T11:39:14.678Z,58245.12
2019-05-01T11:40:16.099Z,58245.12
2019-05-01T11:41:16.937Z,58982.40
2019-05-01T11:42:17.421Z,58982.40
2019-05-01T11:43:17.102Z,58982.40
2019-05-01T11:44:16.999Z,58245.12
2019-05-01T11:45:18.082Z,58613.76
2019-05-01T11:46:18.603Z,58245.12
2019-05-01T11:47:19.018Z,58245.12
2019-05-01T11:48:19.763Z,58613.76
2019-05-01T11:49:20.202Z,58245.12
2019-05-01T11:50:20.678Z,58245.12
2019-05-01T11:51:21.118Z,57876.48
2019-05-01T11:52:21.861Z,57876.48
2019-05-01T11:53:22.379Z,58982.40
2019-05-01T11:54:22.824Z,59351.04
2019-05-01T11:55:22.805Z,58982.40
2019-05-01T11:56:24.301Z,58613.76
2019-05-01T11:57:24.832Z,58982.40
2019-05-01T11:58:25.260Z,58982.40
2019-05-01T11:59:25.847Z,58613.76
2019-05-01T12:00:26.440Z,58613.76
2019-05-01T12:01:27.049Z,58982.40
2019-05-01T12:02:26.356Z,59351.04
2019-05-01T12:03:27.801Z,58982.40
2019-05-01T12:04:28.508Z,58613.76
2019-05-01T12:05:29.303Z,58245.12
2019-05-01T12:06:30.019Z,58245.12
2019-05-01T12:07:30.632Z,57876.48
2019-05-01T12:08:31.070Z,57507.84
2019-05-01T12:09:31.624Z,57876.48
2019-05-01T12:10:32.067Z,57876.48
2019-05-01T12:11:32.582Z,57876.48
2019-05-01T12:12:33.210Z,57507.84
2019-05-01T12:13:43.518Z,57876.48
2019-05-01T12:14:33.343Z,57876.48
2019-05-01T12:14:42.065Z,57876.48